createdAt,value
2022-08-22T00:02:28.307Z,74.92
2022-08-22T00:02:45.056Z,67.22
2022-08-22T00:03:03.386Z,70.02
2022-08-22T00:03:08.939Z,71.37
2022-08-22T00:03:09.861Z,71.93
2022-08-22T00:05:18.297Z,74.80
2022-08-22T00:08:27.382Z,74.56
2022-08-22T00:11:07.776Z,74.67
2022-08-22T00:14:31.028Z,74.60
2022-08-22T00:17:16.652Z,74.36
2022-08-22T00:20:00.538Z,74.44
2022-08-22T00:23:10.996Z,74.20
2022-08-22T00:25:51.872Z,74.21
2022-08-22T00:28:23.448Z,74.23
2022-08-22T00:31:39.284Z,74.14
2022-08-22T00:34:29.377Z,73.96
2022-08-22T00:37:20.291Z,74.01
2022-08-22T00:40:12.497Z,73.97
2022-08-22T00:42:59.311Z,73.83
2022-08-22T00:46:10.485Z,74.06
2022-08-22T00:49:01.620Z,73.82
2022-08-22T00:52:04.138Z,73.98
2022-08-22T00:55:34.901Z,73.90
2022-08-22T00:58:59.152Z,73.80
2022-08-22T01:02:12.441Z,73.84
2022-08-22T01:05:02.607Z,73.90
2022-08-22T01:08:07.241Z,74.12
2022-08-22T01:10:46.920Z,74.12
2022-08-22T01:13:41.596Z,74.35
2022-08-22T01:16:40.867Z,74.33
2022-08-22T01:19:44.985Z,74.43
2022-08-22T01:22:48.520Z,74.38
2022-08-22T01:25:40.225Z,74.41
2022-08-22T01:28:34.414Z,74.62
2022-08-22T01:31:22.113Z,74.53
2022-08-22T01:34:26.804Z,74.78
2022-08-22T01:37:49.492Z,74.53
2022-08-22T01:40:53.477Z,74.59
2022-08-22T01:43:51.481Z,74.68
2022-08-22T01:46:48.296Z,74.74
2022-08-22T01:49:32.619Z,75.07
2022-08-22T01:52:10.755Z,75.15
2022-08-22T01:54:57.097Z,75.27
2022-08-22T01:57:25.668Z,75.93
2022-08-22T01:59:58.733Z,76.28
2022-08-22T02:03:13.015Z,76.27
2022-08-22T02:05:52.759Z,76.32
2022-08-22T02:08:32.987Z,76.69
2022-08-22T02:11:11.440Z,76.49
2022-08-22T02:13:45.743Z,76.57
2022-08-22T02:16:25.276Z,76.79
2022-08-22T02:19:20.550Z,77.03
2022-08-22T02:22:03.041Z,77.36
2022-08-22T02:24:32.674Z,77.45
2022-08-22T02:27:35.291Z,77.71
2022-08-22T02:30:15.632Z,77.70
2022-08-22T02:33:03.983Z,77.71
2022-08-22T02:35:51.816Z,77.68
2022-08-22T02:38:24.289Z,78.01
2022-08-22T02:41:05.449Z,78.27
2022-08-22T02:43:56.787Z,78.42
2022-08-22T02:46:54.183Z,78.50
2022-08-22T02:49:47.475Z,78.51
2022-08-22T02:52:40.736Z,78.39
2022-08-22T02:55:15.116Z,78.26
2022-08-22T02:58:09.108Z,78.48
2022-08-22T03:01:16.563Z,78.44
2022-08-22T03:03:46.695Z,78.11
2022-08-22T03:06:16.480Z,78.11
2022-08-22T03:09:23.300Z,78.08
2022-08-22T03:12:13.459Z,77.80
2022-08-22T03:15:18.943Z,77.69
2022-08-22T03:18:27.491Z,77.80
2022-08-22T03:21:13.399Z,77.88
2022-08-22T03:24:14.679Z,77.71
2022-08-22T03:27:05.624Z,77.66
2022-08-22T03:29:47.432Z,77.70
2022-08-22T03:32:22.239Z,77.67
2022-08-22T03:35:02.422Z,77.63
2022-08-22T03:37:40.373Z,77.54
2022-08-22T03:40:19.127Z,77.49
2022-08-22T03:43:11.948Z,77.41
2022-08-22T03:46:11.449Z,77.40
2022-08-22T03:48:44.168Z,77.32
2022-08-22T03:52:07.196Z,77.26
2022-08-22T03:54:58.832Z,77.22
2022-08-22T03:57:31.684Z,77.22
2022-08-22T04:00:56.814Z,77.18
2022-08-22T04:04:03.016Z,77.06
2022-08-22T04:07:32.160Z,77.06
2022-08-22T04:10:21.037Z,77.15
2022-08-22T04:13:42.857Z,77.08
2022-08-22T04:16:49.456Z,76.90
2022-08-22T04:19:31.645Z,76.90
2022-08-22T04:22:39.951Z,76.76
2022-08-22T04:25:41.766Z,76.41
2022-08-22T04:28:10.230Z,76.17
2022-08-22T04:31:05.865Z,76.15
2022-08-22T04:34:12.029Z,75.96
2022-08-22T04:37:03.852Z,75.85
2022-08-22T04:39:43.591Z,75.75
2022-08-22T04:42:33.043Z,75.83
2022-08-22T04:45:18.692Z,75.81
2022-08-22T04:48:05.992Z,75.80
2022-08-22T04:50:49.108Z,75.70
2022-08-22T04:53:53.023Z,75.45
2022-08-22T04:56:48.718Z,75.33
2022-08-22T04:59:18.768Z,75.33
2022-08-22T05:01:58.620Z,75.45
2022-08-22T05:04:30.593Z,75.11
2022-08-22T05:07:26.591Z,75.04
2022-08-22T05:10:09.334Z,74.59
2022-08-22T05:12:45.376Z,74.59
2022-08-22T05:15:23.262Z,74.70
2022-08-22T05:17:55.492Z,74.83
2022-08-22T05:20:25.868Z,75.03
2022-08-22T05:23:05.905Z,75.16
2022-08-22T05:25:37.591Z,75.21
2022-08-22T05:28:17.128Z,75.08
2022-08-22T05:30:47.778Z,74.98
2022-08-22T05:33:26.282Z,74.71
2022-08-22T05:36:09.519Z,74.41
2022-08-22T05:38:45.500Z,74.01
2022-08-22T05:41:23.882Z,74.15
2022-08-22T05:43:53.154Z,74.12
2022-08-22T05:46:38.167Z,74.05
2022-08-22T05:49:32.304Z,73.77
2022-08-22T05:52:30.984Z,73.50
2022-08-22T05:55:19.560Z,72.96
2022-08-22T05:57:55.010Z,72.71
2022-08-22T06:00:27.840Z,72.29
2022-08-22T06:03:13.169Z,72.17
2022-08-22T06:05:45.042Z,71.54
2022-08-22T06:08:30.349Z,71.06
2022-08-22T06:11:05.136Z,70.74
2022-08-22T06:13:37.200Z,70.56
2022-08-22T06:16:36.927Z,69.76
2022-08-22T06:19:04.981Z,69.30
2022-08-22T06:21:50.132Z,68.76
2022-08-22T06:24:24.248Z,69.25
2022-08-22T06:26:56.340Z,69.18
2022-08-22T06:29:50.670Z,68.86
2022-08-22T06:32:44.607Z,68.76
2022-08-22T06:35:59.429Z,68.26
2022-08-22T06:38:32.938Z,68.33
2022-08-22T06:41:07.368Z,67.97
2022-08-22T06:43:42.431Z,68.11
2022-08-22T06:46:12.700Z,67.89
2022-08-22T06:48:40.664Z,67.82
2022-08-22T06:51:08.286Z,68.04
2022-08-22T06:53:47.775Z,67.92
2022-08-22T06:56:25.885Z,67.68
2022-08-22T06:58:59.957Z,67.36
2022-08-22T07:01:35.200Z,67.55
2022-08-22T07:04:09.678Z,67.51
2022-08-22T07:06:42.633Z,67.54
2022-08-22T07:09:27.520Z,67.51
2022-08-22T07:11:58.883Z,67.43
2022-08-22T07:14:42.617Z,67.29
2022-08-22T07:17:18.608Z,67.03
2022-08-22T07:19:58.989Z,66.64
2022-08-22T07:22:31.813Z,66.84
2022-08-22T07:25:14.188Z,66.60
2022-08-22T07:27:54.692Z,65.98
2022-08-22T07:30:28.046Z,65.98
2022-08-22T07:33:30.334Z,66.19
2022-08-22T07:36:05.465Z,65.93
2022-08-22T07:38:44.998Z,65.00
2022-08-22T07:41:17.926Z,64.63
2022-08-22T07:43:51.288Z,64.13
2022-08-22T07:46:42.037Z,64.01
2022-08-22T07:49:23.988Z,63.21
2022-08-22T07:52:03.928Z,62.41
2022-08-22T07:54:47.767Z,62.97
2022-08-22T07:57:24.405Z,62.58
2022-08-22T07:59:54.886Z,62.15
2022-08-22T08:02:24.176Z,62.09
2022-08-22T08:04:54.446Z,61.95
2022-08-22T08:07:26.369Z,61.70
2022-08-22T08:10:07.972Z,61.71
2022-08-22T08:12:43.817Z,61.56
2022-08-22T08:15:23.259Z,61.66
2022-08-22T08:18:01.476Z,61.78
2022-08-22T08:20:29.826Z,61.28
2022-08-22T08:22:58.732Z,60.62
2022-08-22T08:25:29.146Z,60.52
2022-08-22T08:28:18.179Z,60.32
2022-08-22T08:30:54.751Z,59.94
2022-08-22T08:33:27.614Z,60.22
2022-08-22T08:36:55.323Z,60.21
2022-08-22T08:39:35.349Z,60.50
2022-08-22T08:43:12.173Z,60.70
2022-08-22T08:45:51.297Z,60.81
2022-08-22T08:49:11.774Z,60.98
2022-08-22T08:52:03.026Z,61.03
2022-08-22T08:55:21.811Z,60.89
2022-08-22T08:58:33.484Z,60.73
2022-08-22T09:01:06.416Z,60.81
2022-08-22T09:04:15.253Z,60.66
2022-08-22T09:06:54.795Z,60.76
2022-08-22T09:10:20.224Z,60.39
2022-08-22T09:12:56.064Z,59.90
2022-08-22T09:16:04.990Z,59.82
2022-08-22T09:19:01.716Z,59.97
2022-08-22T09:22:01.967Z,59.47
2022-08-22T09:24:57.524Z,59.34
2022-08-22T09:27:54.481Z,59.30
2022-08-22T09:30:32.488Z,59.13
2022-08-22T09:33:13.797Z,58.81
2022-08-22T09:36:17.813Z,58.62
2022-08-22T09:39:18.578Z,58.52
2022-08-22T09:42:02.677Z,58.63
2022-08-22T09:44:39.737Z,58.56
2022-08-22T09:47:25.048Z,58.21
2022-08-22T09:50:23.981Z,57.90
2022-08-22T09:53:32.334Z,57.51
2022-08-22T09:56:38.561Z,57.36
2022-08-22T09:59:16.080Z,57.06
2022-08-22T10:01:58.521Z,56.91
2022-08-22T10:04:52.843Z,56.15
2022-08-22T10:08:00.877Z,55.34
2022-08-22T10:10:46.166Z,54.66
2022-08-22T10:13:31.639Z,54.41
2022-08-22T10:16:22.652Z,53.84
2022-08-22T10:19:23.764Z,53.22
2022-08-22T10:22:20.304Z,52.59
2022-08-22T10:25:06.892Z,52.92
2022-08-22T10:27:39.730Z,52.97
2022-08-22T10:30:11.280Z,52.98
2022-08-22T10:32:51.601Z,52.81
2022-08-22T10:35:46.414Z,53.02
2022-08-22T10:38:31.832Z,52.76
2022-08-22T10:41:25.353Z,52.67
2022-08-22T10:44:16.631Z,52.79
2022-08-22T10:47:14.001Z,52.75
2022-08-22T10:49:59.922Z,51.88
2022-08-22T10:53:19.110Z,51.58
2022-08-22T10:56:09.169Z,51.45
2022-08-22T10:58:55.366Z,51.51
2022-08-22T11:01:41.052Z,49.98
2022-08-22T11:04:37.672Z,49.18
2022-08-22T11:08:00.560Z,49.31
2022-08-22T11:10:48.253Z,49.84
2022-08-22T11:13:32.866Z,49.00
2022-08-22T11:16:10.884Z,48.64
2022-08-22T11:19:02.558Z,48.54
2022-08-22T11:22:03.760Z,48.47
2022-08-22T11:24:35.657Z,48.15
2022-08-22T11:27:35.192Z,48.31
2022-08-22T11:30:18.585Z,48.18
2022-08-22T11:33:32.495Z,48.29
2022-08-22T11:36:40.976Z,47.68
2022-08-22T11:39:33.037Z,47.51
2022-08-22T11:42:08.264Z,47.62
2022-08-22T11:45:11.665Z,46.76
2022-08-22T11:48:02.082Z,45.87
2022-08-22T11:50:45.277Z,45.87
2022-08-22T11:53:41.555Z,45.74
2022-08-22T11:56:52.814Z,45.55
2022-08-22T11:59:32.562Z,45.25
2022-08-22T12:02:12.545Z,45.09
2022-08-22T12:04:54.630Z,45.45
2022-08-22T12:07:31.271Z,45.34
2022-08-22T12:10:08.728Z,45.40
2022-08-22T12:12:42.075Z,44.96
2022-08-22T12:15:24.433Z,44.48
2022-08-22T12:18:25.027Z,44.33
2022-08-22T12:21:21.594Z,44.30
2022-08-22T12:24:19.150Z,44.44
2022-08-22T12:27:35.744Z,44.69
2022-08-22T12:30:27.904Z,44.21
2022-08-22T12:33:35.309Z,44.02
2022-08-22T12:36:20.237Z,43.58
2022-08-22T12:39:23.785Z,42.99
2022-08-22T12:42:35.106Z,43.10
2022-08-22T12:45:44.771Z,42.25
2022-08-22T12:48:38.189Z,42.31
2022-08-22T12:51:35.861Z,41.99
2022-08-22T12:54:49.080Z,41.94
2022-08-22T12:57:34.168Z,42.26
2022-08-22T13:00:43.270Z,41.72
2022-08-22T13:03:31.625Z,42.31
2022-08-22T13:06:25.388Z,42.10
2022-08-22T13:08:53.782Z,41.77
2022-08-22T13:11:23.158Z,41.38
2022-08-22T13:13:57.130Z,40.94
2022-08-22T13:16:38.762Z,41.14
2022-08-22T13:19:16.465Z,41.18
2022-08-22T13:21:52.510Z,40.78
2022-08-22T13:24:40.946Z,40.42
2022-08-22T13:27:50.753Z,40.97
2022-08-22T13:30:34.426Z,41.08
2022-08-22T13:33:35.432Z,40.87
2022-08-22T13:36:07.787Z,40.29
2022-08-22T13:38:57.282Z,40.27
2022-08-22T13:41:42.632Z,40.36
2022-08-22T13:44:24.092Z,40.09
2022-08-22T13:47:13.013Z,39.75
2022-08-22T13:49:52.916Z,39.90
2022-08-22T13:52:52.224Z,40.34
2022-08-22T13:55:49.104Z,39.32
2022-08-22T13:58:38.825Z,38.53
2022-08-22T14:01:20.946Z,38.61
2022-08-22T14:04:32.327Z,39.01
2022-08-22T14:07:03.147Z,38.55
2022-08-22T14:09:58.380Z,38.06
2022-08-22T14:12:49.920Z,38.25
2022-08-22T14:15:33.072Z,38.83
2022-08-22T14:18:35.365Z,39.04
2022-08-22T14:21:41.273Z,39.17
2022-08-22T14:24:45.922Z,39.28
2022-08-22T14:27:26.879Z,39.49
2022-08-22T14:30:01.862Z,40.17
2022-08-22T14:32:47.540Z,41.75
2022-08-22T14:35:44.556Z,42.49
2022-08-22T14:38:30.432Z,43.39
2022-08-22T14:41:09.885Z,43.85
2022-08-22T14:44:07.003Z,44.06
2022-08-22T14:46:55.638Z,44.33
2022-08-22T14:49:32.128Z,44.88
2022-08-22T14:52:09.608Z,45.25
2022-08-22T14:54:38.353Z,45.33
2022-08-22T14:57:19.802Z,45.00
2022-08-22T14:59:51.749Z,45.45
2022-08-22T15:02:32.351Z,45.40
2022-08-22T15:05:17.632Z,45.25
2022-08-22T15:07:58.732Z,45.16
2022-08-22T15:10:34.118Z,45.33
2022-08-22T15:13:07.762Z,45.08
2022-08-22T15:15:54.381Z,45.06
2022-08-22T15:18:26.765Z,45.09
2022-08-22T15:21:32.097Z,45.04
2022-08-22T15:24:09.139Z,44.69
2022-08-22T15:26:51.560Z,44.11
2022-08-22T15:29:35.863Z,43.02
2022-08-22T15:32:03.804Z,43.20
2022-08-22T15:34:45.228Z,42.99
2022-08-22T15:37:17.946Z,43.27
2022-08-22T15:40:11.683Z,43.11
2022-08-22T15:42:44.116Z,43.38
2022-08-22T15:45:33.769Z,43.72
2022-08-22T15:48:07.285Z,44.03
2022-08-22T15:50:36.666Z,44.35
2022-08-22T15:53:24.455Z,45.02
2022-08-22T15:56:06.426Z,45.16
2022-08-22T15:58:39.754Z,44.94
2022-08-22T16:01:22.294Z,45.18
2022-08-22T16:04:07.909Z,45.49
2022-08-22T16:06:54.408Z,45.53
2022-08-22T16:09:46.562Z,45.74
2022-08-22T16:12:47.167Z,46.16
2022-08-22T16:15:52.624Z,46.32
2022-08-22T16:18:36.328Z,46.72
2022-08-22T16:21:07.549Z,46.79
2022-08-22T16:23:49.847Z,46.87
2022-08-22T16:26:20.229Z,47.19
2022-08-22T16:28:59.319Z,47.34
2022-08-22T16:31:44.165Z,47.61
2022-08-22T16:34:17.201Z,47.64
2022-08-22T16:37:02.513Z,47.48
2022-08-22T16:39:36.675Z,47.40
2022-08-22T16:42:12.725Z,47.66
2022-08-22T16:45:07.780Z,47.64
2022-08-22T16:47:40.930Z,47.55
2022-08-22T16:50:22.745Z,47.42
2022-08-22T16:53:26.217Z,47.42
2022-08-22T16:56:28.797Z,47.77
2022-08-22T16:59:14.085Z,47.83
2022-08-22T17:02:29.716Z,47.95
2022-08-22T17:05:09.155Z,47.93
2022-08-22T17:08:24.457Z,47.85
2022-08-22T17:11:12.573Z,47.70
2022-08-22T17:14:18.701Z,48.00
2022-08-22T17:17:35.383Z,48.09
2022-08-22T17:20:36.722Z,47.89
2022-08-22T17:23:28.071Z,48.28
2022-08-22T17:26:29.256Z,49.21
2022-08-22T17:29:58.687Z,50.94
2022-08-22T17:33:23.480Z,52.12
2022-08-22T17:36:26.533Z,52.49
2022-08-22T17:39:15.848Z,53.55
2022-08-22T17:42:20.948Z,53.81
2022-08-22T17:45:12.959Z,54.14
2022-08-22T17:47:49.327Z,55.06
2022-08-22T17:50:16.054Z,56.63
2022-08-22T17:53:02.575Z,56.87
2022-08-22T17:56:11.585Z,57.46
2022-08-22T17:59:11.196Z,58.15
2022-08-22T18:01:58.161Z,59.01
2022-08-22T18:04:58.482Z,58.54
2022-08-22T18:07:55.706Z,58.41
2022-08-22T18:11:08.379Z,58.60
2022-08-22T18:13:56.707Z,58.94
2022-08-22T18:16:46.463Z,59.19
2022-08-22T18:19:38.049Z,59.57
2022-08-22T18:22:24.256Z,59.53
2022-08-22T18:25:07.146Z,59.41
2022-08-22T18:28:23.576Z,59.80
2022-08-22T18:31:33.235Z,60.07
2022-08-22T18:35:02.685Z,60.69
2022-08-22T18:37:32.875Z,62.17
2022-08-22T18:40:20.009Z,62.33
2022-08-22T18:43:23.443Z,62.51
2022-08-22T18:45:50.131Z,62.93
2022-08-22T18:48:33.604Z,63.10
2022-08-22T18:51:38.390Z,63.48
2022-08-22T18:54:06.316Z,63.54
2022-08-22T18:56:57.733Z,64.81
2022-08-22T19:00:16.707Z,65.13
2022-08-22T19:03:13.808Z,65.35
2022-08-22T19:06:08.008Z,65.38
2022-08-22T19:09:19.528Z,65.29
2022-08-22T19:12:25.777Z,65.10
2022-08-22T19:15:27.694Z,64.97
2022-08-22T19:18:06.288Z,64.86
2022-08-22T19:20:56.440Z,64.96
2022-08-22T19:23:32.079Z,65.11
2022-08-22T19:26:23.213Z,65.12
2022-08-22T19:29:04.254Z,65.19
2022-08-22T19:31:35.408Z,65.51
2022-08-22T19:34:34.851Z,65.56
2022-08-22T19:37:30.908Z,65.57
2022-08-22T19:40:08.915Z,65.52
2022-08-22T19:42:42.699Z,65.59
2022-08-22T19:45:28.028Z,65.38
2022-08-22T19:48:09.442Z,65.30
2022-08-22T19:50:38.934Z,65.35
2022-08-22T19:53:21.901Z,65.20
2022-08-22T19:56:12.938Z,65.12
2022-08-22T19:59:28.480Z,65.02
2022-08-22T20:02:19.240Z,64.94
2022-08-22T20:05:03.349Z,64.77
2022-08-22T20:07:36.375Z,64.92
2022-08-22T20:10:31.652Z,64.78
2022-08-22T20:13:17.393Z,64.60
2022-08-22T20:16:43.420Z,64.56
2022-08-22T20:19:18.915Z,64.73
2022-08-22T20:21:57.738Z,64.74
2022-08-22T20:24:44.048Z,64.90
2022-08-22T20:27:32.473Z,65.20
2022-08-22T20:30:28.565Z,65.17
2022-08-22T20:33:08.443Z,65.42
2022-08-22T20:35:50.752Z,65.59
2022-08-22T20:38:23.740Z,65.77
2022-08-22T20:41:21.011Z,65.75
2022-08-22T20:43:55.268Z,66.00
2022-08-22T20:46:38.513Z,66.16
2022-08-22T20:49:24.599Z,66.07
2022-08-22T20:51:57.835Z,66.11
2022-08-22T20:54:29.965Z,66.19
2022-08-22T20:57:13.365Z,66.38
2022-08-22T20:59:53.117Z,66.37
2022-08-22T21:02:38.385Z,66.56
2022-08-22T21:05:21.788Z,66.55
2022-08-22T21:08:24.557Z,66.72
2022-08-22T21:11:18.779Z,66.91
2022-08-22T21:13:46.561Z,66.93
2022-08-22T21:16:13.480Z,67.20
2022-08-22T21:18:45.969Z,67.36
2022-08-22T21:21:18.839Z,67.36
2022-08-22T21:23:48.443Z,67.78
2022-08-22T21:26:27.131Z,67.54
2022-08-22T21:28:53.857Z,67.72
2022-08-22T21:31:26.552Z,68.21
2022-08-22T21:33:55.692Z,68.22
2022-08-22T21:36:30.313Z,68.39
2022-08-22T21:39:05.868Z,68.36
2022-08-22T21:41:43.336Z,68.49
2022-08-22T21:44:41.908Z,68.87
2022-08-22T21:47:31.243Z,69.18
2022-08-22T21:50:31.100Z,69.29
2022-08-22T21:53:27.185Z,69.35
2022-08-22T21:56:13.205Z,69.55
2022-08-22T21:58:41.275Z,69.99
2022-08-22T22:01:32.197Z,69.90
2022-08-22T22:03:59.515Z,70.11
2022-08-22T22:06:26.733Z,70.49
2022-08-22T22:08:54.623Z,70.56
2022-08-22T22:11:21.521Z,70.78
2022-08-22T22:13:48.403Z,70.74
2022-08-22T22:16:27.008Z,70.73
2022-08-22T22:18:54.422Z,70.56
2022-08-22T22:21:21.385Z,70.89
2022-08-22T22:23:49.958Z,70.96
2022-08-22T22:26:16.897Z,70.95
2022-08-22T22:28:47.730Z,71.11
2022-08-22T22:31:17.632Z,71.34
2022-08-22T22:33:45.529Z,71.67
2022-08-22T22:36:24.676Z,71.57
2022-08-22T22:38:53.345Z,71.65
2022-08-22T22:41:24.793Z,71.93
2022-08-22T22:43:54.308Z,72.18
2022-08-22T22:46:22.787Z,72.26
2022-08-22T22:48:49.933Z,72.00
2022-08-22T22:51:16.736Z,72.05
2022-08-22T22:53:44.292Z,72.03
2022-08-22T22:56:15.758Z,71.86
2022-08-22T22:58:43.494Z,71.82
2022-08-22T23:01:23.886Z,71.95
2022-08-22T23:03:57.797Z,71.97
2022-08-22T23:06:27.718Z,71.88
2022-08-22T23:08:55.536Z,71.90
2022-08-22T23:11:28.344Z,71.87
2022-08-22T23:13:55.865Z,71.85
2022-08-22T23:16:27.728Z,71.83
2022-08-22T23:18:55.686Z,71.73
2022-08-22T23:21:27.346Z,71.84
2022-08-22T23:23:57.866Z,71.75
2022-08-22T23:26:25.648Z,71.84
2022-08-22T23:28:52.534Z,71.57
2022-08-22T23:31:31.202Z,71.62
2022-08-22T23:34:05.631Z,71.76
2022-08-22T23:36:33.597Z,71.55
2022-08-22T23:39:00.441Z,71.64
2022-08-22T23:41:27.441Z,71.74
2022-08-22T23:43:54.862Z,71.67
2022-08-22T23:46:24.560Z,71.64
2022-08-22T23:48:52.414Z,71.57
2022-08-22T23:51:23.210Z,71.67
2022-08-22T23:53:52.789Z,71.72
2022-08-22T23:56:31.874Z,71.72
2022-08-22T23:59:03.873Z,71.77
